In Rescue
 
Open Full Screen Window  High Contrast Mode
January 28, 2020 10:33 PM CST
Weather Information
Wind Direction
  ---
Wind Speed
  00 kt (0 mph)
Wind Gust
  00 kt (0 mph)
Altimeter
30.13 in
Visibility
10 SM
Temperature
-10° C
14° F
Dewpoint
-11° C
12° F
Humidity
92%
1hr Rain Fall
00.00 in.
24hr Rain Fall
00.00 in.
Sky Condition
Overcast @ 600 ft
IFR

METAR KGHW 290433Z AUTO 00000KT 10SM OVC006 M10/M11 A3013 RMK AO2

FAA Disclaimer: The data displayed is for advisory purposes only and is not to be used for flight planning or operations.